This is the latest recevied weather packets stored in our database for station/object SQ9PDE-13. If no packets are shown the sender has not sent any weather packets the latest 10 day(s).
| Time | Temp. | Humidity | Pressure | Rain* | Wind** | Luminosity | Snow |
|---|---|---|---|---|---|---|---|
| 1787611347 | 11.11° C | 80% | 1024.3 hPa | - | - | - | - |
| 1787611047 | 11.11° C | 80% | 1024.2 hPa | - | - | - | - |
| 1787610746 | 11.11° C | 81% | 1024.3 hPa | - | - | - | - |
| 1787610445 | 11.67° C | 79% | 1024.2 hPa | - | - | - | - |
| 1787610145 | 11.67° C | 78% | 1024.2 hPa | - | - | - | - |
| 1787609917 | 11.67° C | 78% | 1024.2 hPa | - | - | - | - |
| 1787609617 | 11.67° C | 77% | 1024.2 hPa | - | - | - | - |
| 1787609316 | 11.67° C | 78% | 1024.2 hPa | - | - | - | - |
| 1787609016 | 11.67° C | 78% | 1024.2 hPa | - | - | - | - |
| 1787608715 | 11.67° C | 78% | 1024.3 hPa | - | - | - | - |
| 1787608415 | 11.67° C | 78% | 1024.3 hPa | - | - | - | - |
| 1787608114 | 12.78° C | 74% | 1024 hPa | - | - | - | - |
| 1787607814 | 12.22° C | 76% | 1024.1 hPa | - | - | - | - |
| 1787607513 | 12.22° C | 77% | 1024.1 hPa | - | - | - | - |
| 1787607213 | 12.22° C | 77% | 1024 hPa | - | - | - | - |
| 1787606912 | 12.22° C | 76% | 1023.8 hPa | - | - | - | - |
| 1787606612 | 12.22° C | 76% | 1023.7 hPa | - | - | - | - |
| 1787606311 | 12.78° C | 74% | 1023.5 hPa | - | - | - | - |
| 1787606011 | 13.33° C | 71% | 1023.4 hPa | - | - | - | - |
| 1787605710 | 13.33° C | 70% | 1023.4 hPa | - | - | - | - |
| 1787605410 | 13.33° C | 70% | 1023.3 hPa | - | - | - | - |
| 1787605109 | 13.33° C | 71% | 1023.4 hPa | - | - | - | - |
| 1787604809 | 13.33° C | 71% | 1023.5 hPa | - | - | - | - |
| 1787604508 | 13.33° C | 71% | 1023.5 hPa | - | - | - | - |
| 1787604208 | 12.78° C | 71% | 1023.6 hPa | - | - | - | - |
* Rain since midnight (hover to see other rain measurements)
** Current wind speed in m/s (hover to see current wind gust speed)